Time;durP1;ratioP1;P1;durP2;ratioP2;P2;SDS_P1;SDS_P2;PMS_P1;PMS_P2;Temp;Humidity;BMP_temperature;BMP_pressure;BME280_temperature;BME280_humidity;BME280_pressure;Samples;Min_cycle;Max_cycle;Signal;HPM_P1;HPM_P2
2021/12/02 00:00:41;;;;;;;4.22;0.60;;;3.60;99.90;;;;;;4863361;29;20081;-71
2021/12/02 00:03:08;;;;;;;5.05;1.00;;;3.50;99.90;;;;;;4846182;29;20081;-71
2021/12/02 00:05:34;;;;;;;3.60;0.65;;;3.40;99.90;;;;;;4862995;29;20049;-71
2021/12/02 00:08:00;;;;;;;7.90;1.15;;;3.40;99.90;;;;;;4862858;29;20041;-71
2021/12/02 00:10:31;;;;;;;4.90;0.82;;;3.40;99.90;;;;;;4863250;29;20169;-67
2021/12/02 00:13:01;;;;;;;10.13;0.82;;;3.30;99.90;;;;;;4863110;29;20060;-71
2021/12/02 00:15:48;;;;;;;3.92;0.70;;;3.40;99.90;;;;;;4863087;29;20049;-71
2021/12/02 00:21:06;;;;;;;4.18;0.75;;;3.50;99.90;;;;;;4862585;29;20060;-72
2021/12/02 00:23:36;;;;;;;7.78;1.23;;;3.50;99.90;;;;;;4846027;29;20065;-71
2021/12/02 00:26:11;;;;;;;4.65;1.08;;;3.60;99.90;;;;;;4862658;29;20089;-70
2021/12/02 00:28:39;;;;;;;6.85;0.90;;;3.60;99.90;;;;;;4846470;29;20071;-71
2021/12/02 00:31:05;;;;;;;9.57;1.25;;;3.60;99.90;;;;;;4862648;29;20498;-71
2021/12/02 00:33:33;;;;;;;3.67;0.82;;;3.70;99.90;;;;;;4846099;29;20050;-70
2021/12/02 00:35:59;;;;;;;4.88;0.82;;;3.70;99.90;;;;;;4862389;29;20056;-71
2021/12/02 00:38:26;;;;;;;6.82;1.10;;;3.70;99.90;;;;;;4862465;29;20450;-71
2021/12/02 00:40:53;;;;;;;3.08;0.57;;;3.70;99.90;;;;;;4862438;29;20054;-72
2021/12/02 00:43:19;;;;;;;3.28;1.27;;;3.70;99.90;;;;;;4862619;29;20053;-73
2021/12/02 00:45:46;;;;;;;4.85;1.13;;;3.60;99.90;;;;;;4862433;29;20049;-70
2021/12/02 00:48:13;;;;;;;5.97;0.88;;;3.60;99.90;;;;;;4862606;29;20038;-71
2021/12/02 00:50:45;;;;;;;6.53;1.05;;;3.60;99.90;;;;;;4862111;29;20061;-71
2021/12/02 00:53:11;;;;;;;4.35;0.70;;;3.50;99.90;;;;;;4862477;29;20053;-71
2021/12/02 00:55:40;;;;;;;4.75;0.90;;;3.50;99.90;;;;;;4862370;29;20061;-71
2021/12/02 00:58:06;;;;;;;6.13;0.88;;;3.40;99.90;;;;;;4862250;29;20064;-70
2021/12/02 01:00:33;;;;;;;3.40;0.82;;;3.40;99.90;;;;;;4862052;29;20045;-71
2021/12/02 01:03:02;;;;;;;4.63;1.05;;;3.30;99.90;;;;;;4862016;29;20088;-71
2021/12/02 01:05:29;;;;;;;2.45;0.73;;;3.20;99.90;;;;;;4862003;29;20054;-71
2021/12/02 01:07:55;;;;;;;4.35;0.95;;;3.10;99.90;;;;;;4861715;29;20046;-71
2021/12/02 01:10:21;;;;;;;6.78;1.10;;;3.10;99.90;;;;;;4862072;29;20061;-71
2021/12/02 01:12:49;;;;;;;5.82;0.82;;;3.00;99.90;;;;;;4845281;29;20089;-71
2021/12/02 01:15:16;;;;;;;3.40;0.75;;;3.00;99.90;;;;;;4845399;29;20096;-71
2021/12/02 01:17:42;;;;;;;8.00;0.70;;;2.90;99.90;;;;;;4862188;29;20076;-70
2021/12/02 01:20:08;;;;;;;5.00;1.00;;;3.00;99.90;;;;;;4844603;29;20124;-71
2021/12/02 01:22:38;;;;;;;3.35;0.52;;;3.00;99.90;;;;;;4861209;29;20045;-72
2021/12/02 01:25:07;;;;;;;5.95;0.98;;;3.00;99.90;;;;;;4845247;29;20071;-72
2021/12/02 01:27:35;;;;;;;3.55;0.77;;;2.90;99.90;;;;;;4845319;29;20050;-71
2021/12/02 01:30:03;;;;;;;3.72;0.82;;;2.90;99.90;;;;;;4845281;29;20402;-70
2021/12/02 01:32:33;;;;;;;4.68;1.05;;;2.80;99.90;;;;;;4861825;29;20050;-73
2021/12/02 01:35:03;;;;;;;5.57;0.95;;;2.80;99.90;;;;;;4861679;29;20042;-72
2021/12/02 01:37:29;;;;;;;7.30;0.73;;;2.80;99.90;;;;;;4861190;29;20041;-72
2021/12/02 01:39:56;;;;;;;1.27;0.50;;;2.80;99.90;;;;;;4844659;29;20057;-70
2021/12/02 01:42:24;;;;;;;1.55;0.57;;;2.80;99.90;;;;;;4861414;29;20049;-71
2021/12/02 01:44:54;;;;;;;2.55;0.80;;;2.90;99.90;;;;;;4861526;29;20049;-71
2021/12/02 01:47:25;;;;;;;5.60;0.88;;;2.80;99.90;;;;;;4861627;29;20045;-71
2021/12/02 01:49:58;;;;;;;6.38;1.00;;;2.90;99.90;;;;;;4861459;29;20468;-69
2021/12/02 01:52:30;;;;;;;1.80;0.52;;;2.90;99.90;;;;;;4861605;29;20046;-72
2021/12/02 01:55:09;;;;;;;5.68;1.38;;;2.90;99.90;;;;;;4860680;29;20045;-69
2021/12/02 01:57:38;;;;;;;4.40;0.82;;;2.90;99.90;;;;;;4845344;29;20057;-71
2021/12/02 02:00:15;;;;;;;6.30;0.82;;;2.90;99.90;;;;;;4861192;29;20053;-71
2021/12/02 02:02:42;;;;;;;5.13;0.80;;;3.00;99.90;;;;;;4861231;29;20355;-69
2021/12/02 02:05:13;;;;;;;4.53;1.20;;;3.00;99.90;;;;;;4844349;29;20067;-70
2021/12/02 02:08:04;;;;;;;5.15;0.77;;;3.10;99.90;;;;;;4844352;29;20422;-71
2021/12/02 02:10:34;;;;;;;4.47;0.77;;;3.10;99.90;;;;;;4843950;29;20065;-75
2021/12/02 02:13:05;;;;;;;6.07;0.90;;;3.20;99.90;;;;;;4861086;29;20073;-71
2021/12/02 02:15:31;;;;;;;5.97;0.83;;;3.20;99.90;;;;;;4861085;29;20063;-71
2021/12/02 02:18:03;;;;;;;3.60;0.60;;;3.20;99.90;;;;;;4843833;29;20620;-70
2021/12/02 02:20:41;;;;;;;1.67;0.70;;;3.20;99.90;;;;;;4844358;29;20189;-72
2021/12/02 02:23:11;;;;;;;2.70;0.55;;;3.20;99.90;;;;;;4861090;29;20132;-71
2021/12/02 02:25:37;;;;;;;1.98;0.70;;;3.20;99.90;;;;;;4860339;29;20545;-69
2021/12/02 02:28:03;;;;;;;2.88;0.50;;;3.20;99.90;;;;;;4860824;29;20049;-70
2021/12/02 02:30:29;;;;;;;2.17;0.80;;;3.20;99.90;;;;;;4860780;29;20052;-71
2021/12/02 02:32:55;;;;;;;2.47;0.47;;;3.20;99.90;;;;;;4843589;29;20042;-71
2021/12/02 02:35:21;;;;;;;7.32;0.80;;;3.20;99.90;;;;;;4860863;29;20060;-73
2021/12/02 02:37:47;;;;;;;6.38;0.80;;;3.30;99.90;;;;;;4844420;29;20046;-71
2021/12/02 02:40:15;;;;;;;3.13;0.63;;;3.30;99.90;;;;;;4860404;29;20057;-71
2021/12/02 02:42:45;;;;;;;2.10;0.40;;;3.20;99.90;;;;;;4859114;29;20058;-71
2021/12/02 02:45:11;;;;;;;2.38;0.40;;;3.20;99.90;;;;;;4860477;29;20121;-71
2021/12/02 02:47:39;;;;;;;2.95;1.20;;;3.30;99.90;;;;;;4860490;29;20050;-70
2021/12/02 02:50:06;;;;;;;2.50;0.57;;;3.30;99.90;;;;;;4860872;29;20109;-71
2021/12/02 02:52:32;;;;;;;7.55;0.95;;;3.20;99.90;;;;;;4844007;29;20057;-68
2021/12/02 02:54:59;;;;;;;5.15;0.70;;;3.20;99.90;;;;;;4860787;29;20049;-72
2021/12/02 02:57:28;;;;;;;2.80;0.40;;;3.20;99.90;;;;;;4860486;29;20470;-71
2021/12/02 03:00:07;;;;;;;3.78;0.80;;;3.20;99.90;;;;;;4860453;29;20387;-70
2021/12/02 03:07:34;;;;;;;3.63;0.73;;;3.20;99.90;;;;;;4860865;29;20117;-70
2021/12/02 03:17:43;;;;;;;6.93;1.05;;;3.30;99.90;;;;;;4843576;29;20061;-69
2021/12/02 03:20:09;;;;;;;1.00;0.30;;;3.30;99.90;;;;;;4844064;29;20056;-70
2021/12/02 03:22:35;;;;;;;2.42;0.57;;;3.30;99.90;;;;;;4860487;29;20132;-70
2021/12/02 03:25:02;;;;;;;4.97;0.47;;;3.30;99.90;;;;;;4860200;29;20049;-70
2021/12/02 03:27:28;;;;;;;1.58;0.40;;;3.30;99.90;;;;;;4843267;29;20187;-69
2021/12/02 03:29:53;;;;;;;7.93;0.90;;;3.30;99.90;;;;;;4859984;29;20128;-73
2021/12/02 03:32:19;;;;;;;2.17;0.43;;;3.20;99.90;;;;;;4859005;29;20116;-70
2021/12/02 03:34:45;;;;;;;2.17;0.50;;;3.20;99.90;;;;;;4843669;29;20129;-70
2021/12/02 03:37:11;;;;;;;3.00;0.57;;;4.30;99.90;;;;;;4860232;29;20046;-72
2021/12/02 03:39:37;;;;;;;8.15;1.08;;;3.00;99.90;;;;;;4858352;29;20050;-68
2021/12/02 03:42:05;;;;;;;5.45;0.60;;;3.00;99.90;;;;;;4843494;29;20064;-70
2021/12/02 03:44:30;;;;;;;4.55;0.70;;;2.90;99.90;;;;;;4861384;29;20053;-71
2021/12/02 03:46:56;;;;;;;1.42;0.50;;;2.90;99.90;;;;;;4846864;29;20481;-73
2021/12/02 03:49:22;;;;;;;3.17;0.80;;;2.90;99.90;;;;;;4863545;29;20076;-71
2021/12/02 03:51:48;;;;;;;1.65;0.32;;;2.80;99.90;;;;;;4863456;29;20053;-69
2021/12/02 03:54:14;;;;;;;4.65;0.55;;;2.80;99.90;;;;;;4863496;29;20060;-70
2021/12/02 03:56:40;;;;;;;3.15;0.65;;;2.80;99.90;;;;;;4863234;29;20419;-71
2021/12/02 03:59:06;;;;;;;2.33;0.77;;;2.80;99.90;;;;;;4863172;29;20109;-70
2021/12/02 04:01:31;;;;;;;4.47;1.38;;;2.80;99.90;;;;;;4861438;29;20394;-71
2021/12/02 04:03:57;;;;;;;3.22;0.57;;;3.30;99.90;;;;;;4861553;29;20065;-70
2021/12/02 04:06:23;;;;;;;2.95;0.65;;;2.80;99.90;;;;;;4863350;29;20141;-71
2021/12/02 04:09:05;;;;;;;3.03;0.70;;;2.70;99.90;;;;;;4863261;29;20065;-70
2021/12/02 04:11:35;;;;;;;0.93;0.45;;;2.80;99.90;;;;;;4862910;29;20106;-70
2021/12/02 04:16:36;;;;;;;4.38;0.65;;;2.70;99.90;;;;;;4846066;29;20062;-71
2021/12/02 04:19:04;;;;;;;2.25;0.70;;;2.70;99.90;;;;;;4863142;29;20049;-73
2021/12/02 04:21:30;;;;;;;2.90;0.75;;;2.80;99.90;;;;;;4862976;29;20053;-70
2021/12/02 04:23:56;;;;;;;1.13;0.50;;;2.80;99.90;;;;;;4862650;29;20101;-73
2021/12/02 04:26:22;;;;;;;4.38;1.00;;;2.80;99.90;;;;;;4862757;29;20079;-73
2021/12/02 04:28:47;;;;;;;3.78;0.60;;;2.70;99.90;;;;;;4846167;29;20044;-78
2021/12/02 04:31:13;;;;;;;6.20;0.68;;;2.70;99.90;;;;;;4845888;29;20053;-78
2021/12/02 04:33:39;;;;;;;2.90;0.77;;;2.70;99.90;;;;;;4845691;29;20459;-74
2021/12/02 04:36:06;;;;;;;2.92;0.90;;;2.70;99.90;;;;;;4862632;29;20056;-79
2021/12/02 04:38:32;;;;;;;2.42;0.70;;;2.60;99.90;;;;;;4862475;29;20056;-72
2021/12/02 04:40:57;;;;;;;6.05;0.93;;;2.60;99.90;;;;;;4862568;29;20053;-72
2021/12/02 04:43:23;;;;;;;5.25;0.70;;;2.60;99.90;;;;;;4862630;29;20046;-73
2021/12/02 04:45:49;;;;;;;4.05;0.80;;;2.60;99.90;;;;;;4845883;29;20102;-71
2021/12/02 04:48:16;;;;;;;3.53;0.93;;;2.60;99.90;;;;;;4865482;29;20060;-71
2021/12/02 04:50:42;;;;;;;9.52;1.42;;;2.60;99.90;;;;;;4845744;29;20057;-70
2021/12/02 04:53:08;;;;;;;3.17;0.70;;;2.60;99.90;;;;;;4862181;29;20046;-70
2021/12/02 04:55:33;;;;;;;4.95;0.80;;;2.60;99.90;;;;;;4862237;29;20046;-71
2021/12/02 04:57:59;;;;;;;5.03;1.10;;;3.00;99.90;;;;;;4845959;29;20497;-70
2021/12/02 05:00:25;;;;;;;3.92;0.90;;;2.60;99.90;;;;;;4845882;29;20046;-69
2021/12/02 05:02:51;;;;;;;6.47;1.00;;;2.70;99.90;;;;;;4845194;29;20510;-71
2021/12/02 05:05:17;;;;;;;4.18;0.82;;;2.70;99.90;;;;;;4862026;29;20045;-70
2021/12/02 05:07:44;;;;;;;3.67;0.80;;;2.60;99.90;;;;;;4845486;29;20401;-71
2021/12/02 05:10:09;;;;;;;3.22;0.85;;;2.60;99.90;;;;;;4845652;29;20056;-70
2021/12/02 05:12:35;;;;;;;1.17;0.50;;;2.60;99.90;;;;;;4861980;29;20054;-70
2021/12/02 05:15:02;;;;;;;4.70;0.80;;;2.50;99.90;;;;;;4830098;29;20117;-70
2021/12/02 05:17:28;;;;;;;1.38;0.52;;;2.40;99.90;;;;;;4845692;29;20448;-70
2021/12/02 05:19:54;;;;;;;3.35;0.55;;;2.20;99.90;;;;;;4861410;29;20061;-76
2021/12/02 05:22:19;;;;;;;2.20;0.50;;;2.10;99.90;;;;;;4845179;29;20049;-71
2021/12/02 05:24:45;;;;;;;1.67;0.40;;;2.00;99.90;;;;;;4845271;29;20495;-70
2021/12/02 05:27:12;;;;;;;2.13;0.52;;;1.80;99.90;;;;;;4861558;29;20051;-68
2021/12/02 05:29:39;;;;;;;1.75;0.30;;;1.70;99.90;;;;;;4861824;29;20057;-70
2021/12/02 05:32:05;;;;;;;1.20;0.60;;;1.60;99.90;;;;;;4845142;29;20102;-70
2021/12/02 05:34:31;;;;;;;0.22;0.20;;;1.50;99.90;;;;;;4844526;29;20452;-70
2021/12/02 05:36:56;;;;;;;1.23;0.30;;;1.40;99.90;;;;;;4844656;29;20061;-70
2021/12/02 05:39:22;;;;;;;2.83;0.43;;;1.40;99.90;;;;;;4829109;29;20060;-69
2021/12/02 05:41:52;;;;;;;0.30;0.20;;;1.30;99.90;;;;;;4861478;29;20178;-70
2021/12/02 05:44:18;;;;;;;0.70;0.20;;;1.30;99.90;;;;;;4861329;29;20058;-70
2021/12/02 05:46:44;;;;;;;0.22;0.22;;;1.30;99.90;;;;;;4861712;29;20182;-70
2021/12/02 05:49:10;;;;;;;1.63;0.40;;;1.20;99.90;;;;;;4861535;29;20127;-69
2021/12/02 05:51:35;;;;;;;0.45;0.30;;;1.20;99.90;;;;;;4861034;29;20056;-69
2021/12/02 05:54:01;;;;;;;2.78;0.40;;;1.20;99.90;;;;;;4861313;29;20443;-70
2021/12/02 05:56:27;;;;;;;2.50;0.63;;;1.20;99.90;;;;;;4861391;29;20128;-70
2021/12/02 05:58:52;;;;;;;0.60;0.38;;;1.20;99.90;;;;;;4844774;29;20535;-70
2021/12/02 06:01:19;;;;;;;0.85;0.32;;;1.10;99.90;;;;;;4862040;29;20049;-70
2021/12/02 06:03:44;;;;;;;1.90;0.60;;;1.10;99.90;;;;;;4859906;29;20101;-70
2021/12/02 06:06:10;;;;;;;2.25;0.60;;;1.10;99.90;;;;;;4860563;29;20049;-70
2021/12/02 06:08:37;;;;;;;2.25;0.75;;;1.20;99.90;;;;;;4861291;29;20033;-70
2021/12/02 06:11:03;;;;;;;1.38;0.70;;;1.20;99.90;;;;;;4861179;29;20088;-69
2021/12/02 06:13:28;;;;;;;1.25;0.70;;;1.20;99.90;;;;;;4860991;29;20073;-70
2021/12/02 06:15:54;;;;;;;2.55;0.80;;;1.20;99.90;;;;;;4861302;29;20578;-71
2021/12/02 06:18:19;;;;;;;1.05;0.68;;;1.20;99.90;;;;;;4861217;29;20463;-70
2021/12/02 06:20:51;;;;;;;2.03;0.70;;;1.20;99.90;;;;;;4844192;29;20054;-70
2021/12/02 06:23:17;;;;;;;0.70;0.43;;;1.30;99.90;;;;;;4860485;29;20060;-70
2021/12/02 06:25:46;;;;;;;1.15;0.60;;;1.30;99.90;;;;;;4860718;29;20049;-69
2021/12/02 06:28:12;;;;;;;1.13;0.52;;;1.40;99.90;;;;;;4860711;29;20045;-71
2021/12/02 06:30:38;;;;;;;2.78;0.75;;;1.40;99.90;;;;;;4844235;29;20057;-68
2021/12/02 06:33:03;;;;;;;2.17;1.00;;;1.40;99.90;;;;;;4844488;29;20053;-70
2021/12/02 06:35:29;;;;;;;1.45;0.80;;;1.40;99.90;;;;;;4860911;29;20105;-71
2021/12/02 06:37:57;;;;;;;0.43;0.43;;;1.40;99.90;;;;;;4843597;29;20434;-71
2021/12/02 06:40:23;;;;;;;0.95;0.47;;;1.40;99.90;;;;;;4843929;29;20113;-69
2021/12/02 06:42:48;;;;;;;3.70;0.60;;;1.40;99.90;;;;;;4843468;29;20426;-70
2021/12/02 06:45:14;;;;;;;1.17;0.50;;;1.40;99.90;;;;;;4860656;29;20049;-70
2021/12/02 06:47:41;;;;;;;0.93;0.52;;;1.30;99.90;;;;;;4844154;29;20053;-70
2021/12/02 06:50:10;;;;;;;0.63;0.38;;;1.30;99.90;;;;;;4860803;29;20049;-70
2021/12/02 06:52:36;;;;;;;1.92;0.77;;;1.30;99.90;;;;;;4844065;29;20499;-70
2021/12/02 06:55:03;;;;;;;4.10;0.98;;;1.30;99.90;;;;;;4843392;29;20057;-70
2021/12/02 06:57:29;;;;;;;1.85;0.80;;;1.30;99.90;;;;;;4860419;29;20394;-71
2021/12/02 06:59:54;;;;;;;2.65;0.90;;;1.40;99.90;;;;;;4843832;29;20053;-72
2021/12/02 07:02:20;;;;;;;2.33;0.73;;;1.40;99.90;;;;;;4860518;29;20046;-70
2021/12/02 07:04:46;;;;;;;6.90;1.00;;;1.40;99.90;;;;;;4860590;29;20061;-69
2021/12/02 07:07:12;;;;;;;2.38;0.93;;;1.50;99.90;;;;;;4864196;29;20037;-68
2021/12/02 07:09:37;;;;;;;4.18;1.08;;;1.40;99.90;;;;;;4878293;29;20525;-69
2021/12/02 07:12:03;;;;;;;3.30;1.00;;;1.50;99.90;;;;;;4878543;29;20397;-71
2021/12/02 07:14:29;;;;;;;5.40;1.05;;;1.50;99.90;;;;;;4875761;29;20402;-70
2021/12/02 07:16:57;;;;;;;2.25;0.80;;;1.50;99.90;;;;;;4878732;29;20052;-68
2021/12/02 07:19:23;;;;;;;2.80;0.82;;;1.50;99.90;;;;;;4880089;29;20096;-71
2021/12/02 07:21:49;;;;;;;4.63;1.00;;;1.50;99.90;;;;;;4865828;29;20053;-69
2021/12/02 07:24:16;;;;;;;3.10;0.95;;;1.50;99.90;;;;;;4873178;29;20042;-68
2021/12/02 07:26:43;;;;;;;6.22;1.08;;;1.50;99.90;;;;;;4854633;29;20048;-72
2021/12/02 07:29:11;;;;;;;1.75;0.77;;;1.50;99.90;;;;;;4855957;29;20081;-69
2021/12/02 07:31:39;;;;;;;3.30;1.15;;;1.50;99.90;;;;;;4881165;29;20045;-76
2021/12/02 07:34:05;;;;;;;1.90;0.70;;;1.50;99.90;;;;;;4881064;29;20045;-73
2021/12/02 07:36:32;;;;;;;2.88;0.70;;;1.50;99.90;;;;;;4881807;29;20053;-71
2021/12/02 07:39:01;;;;;;;3.15;0.63;;;1.50;99.90;;;;;;4882108;29;20061;-77
2021/12/02 07:41:27;;;;;;;3.67;0.90;;;1.40;99.90;;;;;;4877097;29;20656;-70
2021/12/02 07:43:52;;;;;;;3.67;0.82;;;1.40;99.90;;;;;;4879034;29;20080;-70
2021/12/02 07:46:18;;;;;;;4.10;0.90;;;1.30;99.90;;;;;;4880558;29;20089;-68
2021/12/02 07:48:44;;;;;;;2.53;1.15;;;1.90;99.90;;;;;;4880555;29;20465;-75
2021/12/02 07:51:16;;;;;;;3.50;0.85;;;1.60;99.90;;;;;;4879434;29;20049;-67
2021/12/02 07:53:44;;;;;;;3.20;0.90;;;1.10;99.90;;;;;;4863439;29;20120;-69
2021/12/02 07:56:12;;;;;;;1.98;0.82;;;1.10;99.90;;;;;;4863361;29;20053;-67
2021/12/02 07:58:43;;;;;;;2.65;0.80;;;1.10;99.90;;;;;;4880107;29;20052;-69
2021/12/02 08:01:10;;;;;;;2.53;1.00;;;1.10;99.90;;;;;;4863376;29;20111;-70
2021/12/02 08:03:37;;;;;;;6.38;1.17;;;1.10;99.90;;;;;;4879697;29;20057;-70
2021/12/02 08:06:03;;;;;;;3.83;1.02;;;1.00;99.90;;;;;;4863729;29;20171;-70
2021/12/02 08:08:29;;;;;;;4.10;1.10;;;1.00;99.90;;;;;;4881590;29;20625;-70
2021/12/02 08:10:54;;;;;;;3.42;0.90;;;1.00;99.90;;;;;;4882916;29;20056;-71
2021/12/02 08:13:28;;;;;;;2.80;1.00;;;0.90;99.90;;;;;;4897724;29;20060;-71
2021/12/02 08:15:54;;;;;;;2.97;0.98;;;0.90;99.90;;;;;;4882970;29;20051;-71
2021/12/02 08:18:19;;;;;;;3.22;0.82;;;0.90;99.90;;;;;;4899758;29;20123;-71
2021/12/02 08:20:45;;;;;;;2.83;0.80;;;0.90;99.90;;;;;;4899459;29;20037;-73
2021/12/02 08:23:11;;;;;;;2.63;0.82;;;0.80;99.90;;;;;;4882383;29;20056;-72
2021/12/02 08:25:37;;;;;;;1.88;0.70;;;0.80;99.90;;;;;;4882383;29;20091;-73
2021/12/02 08:28:03;;;;;;;2.78;0.90;;;1.50;99.90;;;;;;4899303;29;20078;-73
2021/12/02 08:30:32;;;;;;;1.60;0.68;;;0.80;99.90;;;;;;4898529;29;20044;-73
2021/12/02 08:32:58;;;;;;;4.13;0.80;;;0.90;99.90;;;;;;4882760;29;20045;-71
2021/12/02 08:35:25;;;;;;;1.90;0.70;;;2.10;99.90;;;;;;4899992;29;20044;-74
2021/12/02 08:37:54;;;;;;;1.65;0.80;;;0.90;99.90;;;;;;4899646;29;20052;-73
2021/12/02 08:40:29;;;;;;;2.13;1.00;;;0.80;99.90;;;;;;4867114;29;20141;-73
2021/12/02 08:42:55;;;;;;;4.90;0.75;;;0.90;99.90;;;;;;4883079;29;20063;-73
2021/12/02 08:45:21;;;;;;;3.90;0.93;;;1.00;99.90;;;;;;4866835;29;20056;-73
2021/12/02 08:47:46;;;;;;;3.70;1.33;;;1.00;99.90;;;;;;4876780;29;20061;-71
2021/12/02 08:50:15;;;;;;;3.15;1.10;;;1.00;99.90;;;;;;4880049;29;20045;-70
2021/12/02 08:52:40;;;;;;;3.50;0.95;;;1.00;99.90;;;;;;4879851;29;20108;-72
2021/12/02 08:55:07;;;;;;;2.95;1.10;;;1.10;99.90;;;;;;4880107;29;20053;-71
2021/12/02 08:57:33;;;;;;;2.75;1.20;;;1.10;99.90;;;;;;4880075;29;20088;-71
2021/12/02 08:59:58;;;;;;;3.80;1.30;;;1.20;99.90;;;;;;4880116;29;20539;-77
2021/12/02 09:02:24;;;;;;;3.67;1.20;;;1.30;99.90;;;;;;4862981;29;20049;-71
2021/12/02 09:04:50;;;;;;;4.95;1.92;;;1.30;99.90;;;;;;4879919;29;20071;-71
2021/12/02 09:07:16;;;;;;;3.90;1.20;;;1.40;99.90;;;;;;4879910;29;20061;-71
2021/12/02 09:09:42;;;;;;;5.05;1.27;;;1.50;99.90;;;;;;4863177;29;20069;-70
2021/12/02 09:12:09;;;;;;;6.18;1.50;;;1.50;99.90;;;;;;4863542;29;20065;-70
2021/12/02 09:14:36;;;;;;;4.70;1.50;;;1.60;99.90;;;;;;4879831;29;20120;-71
2021/12/02 09:17:02;;;;;;;4.13;1.60;;;1.60;99.90;;;;;;4878570;29;20048;-71
2021/12/02 09:19:27;;;;;;;4.85;1.48;;;1.70;99.90;;;;;;4862959;29;20072;-70
2021/12/02 09:21:53;;;;;;;6.30;1.92;;;1.80;99.90;;;;;;4863355;29;20506;-72
2021/12/02 09:24:19;;;;;;;6.38;1.88;;;1.90;99.90;;;;;;4862896;29;20550;-70
2021/12/02 09:26:49;;;;;;;5.40;1.83;;;2.00;99.90;;;;;;4879861;29;20045;-73
2021/12/02 09:29:17;;;;;;;7.10;2.00;;;2.10;99.90;;;;;;4879480;29;20052;-71
2021/12/02 09:31:43;;;;;;;6.32;2.05;;;2.10;99.90;;;;;;4879354;29;20092;-71
2021/12/02 09:34:09;;;;;;;6.93;2.20;;;2.20;99.90;;;;;;4879323;29;20037;-72
2021/12/02 09:36:35;;;;;;;4.65;1.90;;;2.30;99.90;;;;;;4879319;29;20057;-77
2021/12/02 09:39:01;;;;;;;5.93;1.80;;;2.40;99.90;;;;;;4862678;29;20068;-76
2021/12/02 09:41:27;;;;;;;5.40;1.98;;;2.50;99.90;;;;;;4878560;29;20144;-74
2021/12/02 09:43:52;;;;;;;6.15;1.88;;;2.60;99.90;;;;;;4879525;29;20135;-76
2021/12/02 09:46:18;;;;;;;4.72;1.80;;;2.70;99.90;;;;;;4879206;29;20036;-73
2021/12/02 09:48:45;;;;;;;5.53;1.85;;;2.80;99.90;;;;;;4879043;29;20104;-78
2021/12/02 09:51:13;;;;;;;9.07;2.63;;;2.90;99.90;;;;;;4879528;29;20409;-76
2021/12/02 09:54:02;;;;;;;4.95;1.90;;;2.90;99.90;;;;;;4879094;29;20049;-74
2021/12/02 09:56:31;;;;;;;7.28;2.28;;;3.10;99.90;;;;;;4879071;29;20553;-72
2021/12/02 09:59:04;;;;;;;8.48;2.20;;;3.10;99.90;;;;;;4879395;29;20140;-74
2021/12/02 10:01:49;;;;;;;8.63;2.03;;;3.20;99.90;;;;;;4878680;29;20052;-73
2021/12/02 10:04:15;;;;;;;6.38;2.00;;;3.30;99.90;;;;;;4861869;29;20045;-74
2021/12/02 10:06:42;;;;;;;5.22;1.90;;;4.10;99.90;;;;;;4879262;29;20132;-74
2021/12/02 10:09:17;;;;;;;5.85;1.80;;;3.40;99.90;;;;;;4879116;29;20049;-78
2021/12/02 10:11:55;;;;;;;5.07;1.60;;;3.40;99.90;;;;;;4878965;29;20088;-78
2021/12/02 10:14:38;;;;;;;8.18;1.90;;;3.40;99.90;;;;;;4862353;29;20041;-79
2021/12/02 10:17:06;;;;;;;4.57;1.67;;;3.50;99.90;;;;;;4879301;29;20045;-80
2021/12/02 10:19:32;;;;;;;4.85;1.40;;;3.50;99.90;;;;;;4878287;29;20056;-81
2021/12/02 10:22:06;;;;;;;4.82;1.42;;;3.30;99.90;;;;;;4878962;29;20136;-77
2021/12/02 10:24:43;;;;;;;3.85;1.13;;;3.30;99.90;;;;;;4878624;29;20077;-78
2021/12/02 10:27:10;;;;;;;4.40;1.13;;;3.20;99.90;;;;;;4878657;29;20097;-77
2021/12/02 10:29:39;;;;;;;3.95;0.85;;;3.90;99.90;;;;;;4877249;29;20060;-77
2021/12/02 10:32:09;;;;;;;1.58;0.50;;;3.50;99.90;;;;;;4879124;29;20108;-79
2021/12/02 10:34:54;;;;;;;2.10;0.80;;;2.90;99.90;;;;;;4877067;29;20695;-78
2021/12/02 10:37:32;;;;;;;5.22;0.90;;;2.80;99.90;;;;;;4888721;29;20049;-74
2021/12/02 10:40:07;;;;;;;2.33;0.80;;;2.60;99.90;;;;;;4878308;29;20064;-76
2021/12/02 10:42:38;;;;;;;2.50;0.75;;;2.60;99.90;;;;;;4878562;29;20071;-76
2021/12/02 10:45:17;;;;;;;2.35;0.90;;;2.60;99.90;;;;;;4877518;29;20060;-74
2021/12/02 10:47:49;;;;;;;5.55;1.10;;;2.60;99.90;;;;;;4878651;29;20057;-73
2021/12/02 10:50:15;;;;;;;2.67;0.77;;;2.60;99.90;;;;;;4878132;29;20602;-71
2021/12/02 10:52:41;;;;;;;2.88;0.90;;;2.60;99.90;;;;;;4879090;29;20512;-71
2021/12/02 10:55:19;;;;;;;4.22;1.00;;;2.60;99.90;;;;;;4865809;29;20092;-73
2021/12/02 10:57:48;;;;;;;3.38;0.85;;;2.60;99.90;;;;;;4882200;29;20068;-73
2021/12/02 11:00:18;;;;;;;4.07;0.70;;;2.60;99.90;;;;;;4882346;29;20041;-72
2021/12/02 11:02:48;;;;;;;7.28;1.20;;;3.20;99.90;;;;;;4882477;29;20122;-73
2021/12/02 11:05:33;;;;;;;4.28;0.80;;;3.10;99.90;;;;;;4882177;29;20056;-72
2021/12/02 11:08:02;;;;;;;3.65;0.95;;;2.10;99.90;;;;;;4882264;29;20426;-78
2021/12/02 11:10:40;;;;;;;2.15;1.00;;;2.70;99.90;;;;;;4882381;29;20047;-73
2021/12/02 11:13:08;;;;;;;3.83;1.10;;;2.80;99.90;;;;;;4882578;29;20113;-83
2021/12/02 11:15:37;;;;;;;2.17;1.00;;;2.80;99.90;;;;;;4883281;29;20099;-87
2021/12/02 11:18:08;;;;;;;3.75;1.25;;;2.80;99.90;;;;;;4883003;29;20525;-72
2021/12/02 11:20:39;;;;;;;5.22;1.80;;;3.90;99.90;;;;;;4865703;29;20068;-73
2021/12/02 11:23:05;;;;;;;5.35;1.98;;;2.90;99.90;;;;;;4882023;29;20108;-73
2021/12/02 11:25:33;;;;;;;6.50;1.90;;;3.00;99.90;;;;;;4881444;29;20053;-73
2021/12/02 11:28:06;;;;;;;4.80;1.90;;;3.00;99.90;;;;;;4881867;29;20041;-77
2021/12/02 11:30:33;;;;;;;5.03;1.40;;;3.00;99.90;;;;;;4881709;29;20049;-75
2021/12/02 11:33:00;;;;;;;5.60;1.58;;;3.00;99.90;;;;;;4882131;29;20124;-72
2021/12/02 11:35:33;;;;;;;3.67;1.38;;;3.30;99.90;;;;;;4883476;29;20048;-72
2021/12/02 11:38:14;;;;;;;3.83;1.10;;;3.00;99.90;;;;;;4886727;29;20097;-72
2021/12/02 11:40:44;;;;;;;2.63;0.60;;;3.00;99.90;;;;;;4887493;29;20057;-75
2021/12/02 11:43:12;;;;;;;1.90;0.43;;;3.00;99.90;;;;;;4887816;29;20073;-74
2021/12/02 11:45:46;;;;;;;0.68;0.30;;;2.90;99.90;;;;;;4886956;29;20116;-77
2021/12/02 11:48:18;;;;;;;1.10;0.60;;;2.80;99.90;;;;;;4882752;29;20113;-78
2021/12/02 11:50:45;;;;;;;1.77;0.60;;;3.60;99.90;;;;;;4884210;29;20103;-80
2021/12/02 11:53:11;;;;;;;1.10;0.50;;;2.50;99.90;;;;;;4882729;29;20045;-80
2021/12/02 11:55:40;;;;;;;1.60;0.50;;;2.30;99.90;;;;;;4865901;29;20057;-79
2021/12/02 11:58:06;;;;;;;1.45;0.50;;;2.20;99.90;;;;;;4865996;29;20053;-80
2021/12/02 12:00:33;;;;;;;1.83;0.70;;;2.20;99.90;;;;;;4882496;29;20132;-80
2021/12/02 12:03:07;;;;;;;3.42;0.60;;;2.10;99.90;;;;;;4882537;29;20049;-79
2021/12/02 12:05:37;;;;;;;1.65;0.55;;;2.10;99.90;;;;;;4881402;29;20052;-80
2021/12/02 12:08:04;;;;;;;2.22;0.60;;;2.10;99.90;;;;;;4881675;29;20573;-81
2021/12/02 12:10:40;;;;;;;2.22;0.70;;;2.20;99.90;;;;;;4881240;29;20044;-81
2021/12/02 12:13:22;;;;;;;1.75;0.70;;;2.20;99.90;;;;;;4881791;29;20123;-76
2021/12/02 12:15:55;;;;;;;1.77;0.68;;;2.20;99.90;;;;;;4881404;29;20412;-80
2021/12/02 12:18:37;;;;;;;3.88;0.80;;;2.30;99.90;;;;;;4864816;29;20053;-74
2021/12/02 12:21:07;;;;;;;;;;;2.40;99.90;;;;;;4880986;29;20061;-80
2021/12/02 12:23:33;;;;;;;1.23;0.55;;;2.40;99.90;;;;;;4882120;29;19924;-75
2021/12/02 12:26:22;;;;;;;1.25;0.60;;;2.40;99.90;;;;;;4864656;29;20053;-78
2021/12/02 12:29:06;;;;;;;2.15;0.70;;;2.40;99.90;;;;;;4881949;29;20041;-79
2021/12/02 12:31:42;;;;;;;2.75;0.70;;;2.40;99.90;;;;;;4882004;29;20091;-76
2021/12/02 12:34:58;;;;;;;1.98;0.70;;;2.30;99.90;;;;;;4881810;29;20053;-82
2021/12/02 12:40:14;;;;;;;3.70;0.90;;;2.30;99.90;;;;;;4881935;29;20088;-78
2021/12/02 12:42:48;;;;;;;1.10;0.60;;;2.10;99.90;;;;;;4877104;29;20056;-77
2021/12/02 12:45:31;;;;;;;3.47;0.80;;;2.00;99.90;;;;;;4880605;29;20198;-74
2021/12/02 12:48:00;;;;;;;2.25;0.90;;;2.00;99.90;;;;;;4880759;29;20409;-84
2021/12/02 12:50:31;;;;;;;2.40;0.90;;;2.00;99.90;;;;;;4880247;29;20527;-83
2021/12/02 12:53:03;;;;;;;2.13;0.80;;;2.10;99.90;;;;;;4866221;29;20064;-79
2021/12/02 12:55:49;;;;;;;1.13;0.63;;;2.10;99.90;;;;;;4878308;29;20606;-80
2021/12/02 12:58:28;;;;;;;2.42;1.10;;;2.10;99.90;;;;;;4878041;29;20045;-75
2021/12/02 13:00:55;;;;;;;3.40;1.10;;;2.10;99.90;;;;;;4878653;29;20053;-76
2021/12/02 13:03:33;;;;;;;4.75;1.20;;;2.20;99.90;;;;;;4878751;29;20047;-75
2021/12/02 13:06:18;;;;;;;4.20;2.05;;;3.10;99.90;;;;;;4879870;29;20052;-84
2021/12/02 13:08:54;;;;;;;1.50;0.80;;;2.30;99.90;;;;;;4879957;29;20390;-78
2021/12/02 13:11:26;;;;;;;3.28;1.00;;;2.30;99.90;;;;;;4878152;29;20068;-78
2021/12/02 13:13:54;;;;;;;4.40;1.60;;;2.30;99.90;;;;;;4880518;29;20206;-86
2021/12/02 13:16:20;;;;;;;2.13;1.17;;;2.20;99.90;;;;;;4879266;29;20056;-84
2021/12/02 13:19:13;;;;;;;2.20;0.95;;;2.20;99.90;;;;;;4880913;29;20131;-76
2021/12/02 13:21:39;;;;;;;;;;;2.20;99.90;;;;;;4878043;29;20596;-77
2021/12/02 13:24:08;;;;;;;2.95;0.93;;;2.10;99.90;;;;;;4880346;29;19924;-81
2021/12/02 13:26:35;;;;;;;4.20;1.50;;;2.10;99.90;;;;;;4878432;29;20107;-86